createdAt,value
2018-04-22T00:01:41.517Z,75.80
2018-04-22T00:04:09.857Z,76.00
2018-04-22T00:06:38.161Z,76.10
2018-04-22T00:09:06.477Z,76.50
2018-04-22T00:11:35.540Z,76.30
2018-04-22T00:14:03.861Z,76.30
2018-04-22T00:16:32.164Z,76.70
2018-04-22T00:19:00.572Z,76.60
2018-04-22T00:21:28.896Z,76.20
2018-04-22T00:23:57.999Z,76.10
2018-04-22T00:26:27.044Z,76.40
2018-04-22T00:28:55.372Z,76.30
2018-04-22T00:31:24.423Z,77.10
2018-04-22T00:33:52.742Z,77.10
2018-04-22T00:36:21.048Z,77.20
2018-04-22T00:38:49.391Z,77.20
2018-04-22T00:41:18.451Z,77.40
2018-04-22T00:43:46.768Z,77.40
2018-04-22T00:46:15.832Z,77.90
2018-04-22T00:48:44.164Z,77.90
2018-04-22T00:51:12.448Z,77.50
2018-04-22T00:53:52.638Z,78.10
2018-04-22T00:56:21.014Z,79.30
2018-04-22T00:58:49.436Z,79.50
2018-04-22T01:01:18.575Z,79.80
2018-04-22T01:03:46.927Z,79.80
2018-04-22T01:06:15.228Z,79.50
2018-04-22T01:08:43.559Z,79.30
2018-04-22T01:11:11.865Z,79.50
2018-04-22T01:13:40.181Z,79.50
2018-04-22T01:16:08.493Z,79.30
2018-04-22T01:18:37.573Z,79.20
2018-04-22T01:21:05.896Z,79.20
2018-04-22T01:23:34.229Z,79.20
2018-04-22T01:26:02.524Z,79.10
2018-04-22T01:28:31.624Z,79.70
2018-04-22T01:31:00.683Z,80.10
2018-04-22T01:33:29.013Z,80.00
2018-04-22T01:35:57.337Z,79.90
2018-04-22T01:38:25.673Z,79.70
2018-04-22T01:40:53.969Z,79.80
2018-04-22T01:43:22.319Z,79.80
2018-04-22T01:45:50.657Z,79.40
2018-04-22T01:48:18.992Z,79.40
2018-04-22T01:50:47.280Z,79.70
2018-04-22T01:53:15.612Z,79.90
2018-04-22T01:55:44.689Z,79.20
2018-04-22T01:58:13.292Z,79.20
2018-04-22T02:00:42.380Z,79.70
2018-04-22T02:03:10.682Z,79.70
2018-04-22T02:05:39.025Z,80.20
2018-04-22T02:08:07.343Z,80.20
2018-04-22T02:10:35.665Z,80.10
2018-04-22T02:13:03.967Z,79.90
2018-04-22T02:15:32.280Z,80.10
2018-04-22T02:18:00.575Z,80.60
2018-04-22T02:20:28.905Z,80.50
2018-04-22T02:22:57.977Z,80.50
2018-04-22T02:25:26.291Z,80.20
2018-04-22T02:27:54.598Z,80.30
2018-04-22T02:30:22.924Z,80.30
2018-04-22T02:32:51.213Z,79.80
2018-04-22T02:35:20.309Z,80.40
2018-04-22T02:37:49.369Z,80.60
2018-04-22T02:40:17.732Z,80.50
2018-04-22T02:42:46.144Z,81.00
2018-04-22T02:45:14.511Z,81.90
2018-04-22T02:47:42.893Z,81.60
2018-04-22T02:50:11.296Z,81.40
2018-04-22T02:52:39.615Z,81.50
2018-04-22T02:55:07.934Z,81.40
2018-04-22T02:57:36.248Z,81.40
2018-04-22T03:00:04.568Z,81.20
2018-04-22T03:02:32.862Z,81.90
2018-04-22T03:05:01.202Z,82.30
2018-04-22T03:07:29.493Z,82.10
2018-04-22T03:09:57.835Z,82.30
2018-04-22T03:12:26.172Z,82.70
2018-04-22T03:14:54.592Z,82.70
2018-04-22T03:17:22.934Z,82.60
2018-04-22T03:19:52.083Z,82.20
2018-04-22T03:22:20.454Z,82.10
2018-04-22T03:24:48.875Z,82.10
2018-04-22T03:27:17.259Z,81.90
2018-04-22T03:29:46.426Z,81.80
2018-04-22T03:32:15.573Z,81.80
2018-04-22T03:34:43.939Z,81.70
2018-04-22T03:37:12.319Z,82.80
2018-04-22T03:39:40.673Z,82.90
2018-04-22T03:42:09.090Z,82.90
2018-04-22T03:44:37.540Z,83.20
2018-04-22T03:47:05.945Z,82.70
2018-04-22T03:49:35.118Z,82.10
2018-04-22T03:52:03.540Z,82.00
2018-04-22T03:54:32.713Z,82.10
2018-04-22T03:57:01.067Z,82.00
2018-04-22T03:59:29.417Z,81.70
2018-04-22T04:01:57.818Z,81.80
2018-04-22T04:04:26.200Z,82.30
2018-04-22T04:06:54.616Z,81.90
2018-04-22T04:09:22.989Z,81.40
2018-04-22T04:11:51.357Z,81.50
2018-04-22T04:14:19.718Z,81.70
2018-04-22T04:16:48.003Z,82.60
2018-04-22T04:19:28.289Z,82.60
2018-04-22T04:22:09.209Z,81.10
2018-04-22T04:24:50.520Z,81.10
2018-04-22T04:30:20.502Z,81.50
2018-04-22T04:32:48.809Z,81.90
2018-04-22T04:35:17.114Z,82.20
2018-04-22T04:37:45.426Z,81.90
2018-04-22T04:40:14.533Z,82.30
2018-04-22T04:42:42.823Z,82.20
2018-04-22T04:45:11.140Z,82.30
2018-04-22T04:47:39.442Z,82.40
2018-04-22T04:50:07.761Z,82.70
2018-04-22T04:52:36.071Z,82.30
2018-04-22T04:55:04.389Z,82.80
2018-04-22T04:57:33.484Z,83.30
2018-04-22T05:00:02.576Z,83.20
2018-04-22T05:02:31.644Z,84.30
2018-04-22T05:04:59.972Z,83.90
2018-04-22T05:07:28.268Z,83.50
2018-04-22T05:09:56.566Z,82.90
2018-04-22T05:12:24.883Z,83.40
2018-04-22T05:14:53.936Z,82.50
2018-04-22T05:17:22.278Z,82.40
2018-04-22T05:19:50.597Z,82.60
2018-04-22T05:22:18.956Z,82.50
2018-04-22T05:24:47.262Z,82.70
2018-04-22T05:27:15.623Z,82.70
2018-04-22T05:29:44.677Z,84.40
2018-04-22T05:32:13.013Z,83.40
2018-04-22T05:34:41.326Z,83.60
2018-04-22T05:37:10.410Z,83.00
2018-04-22T05:39:38.693Z,83.00
2018-04-22T05:42:07.027Z,82.80
2018-04-22T05:44:35.323Z,82.50
2018-04-22T05:47:03.651Z,82.40
2018-04-22T05:49:31.986Z,82.20
2018-04-22T05:52:00.316Z,82.20
2018-04-22T05:54:28.627Z,82.10
2018-04-22T05:56:56.966Z,82.10
2018-04-22T05:59:25.274Z,82.20
2018-04-22T06:01:53.587Z,82.10
2018-04-22T06:04:22.648Z,82.10
2018-04-22T06:06:50.997Z,82.10
2018-04-22T06:09:25.535Z,82.10
2018-04-22T06:11:54.147Z,82.10
2018-04-22T06:14:22.852Z,81.80
2018-04-22T06:16:51.249Z,81.70
2018-04-22T06:19:19.917Z,81.30
2018-04-22T06:21:48.313Z,81.10
2018-04-22T06:24:16.633Z,81.20
2018-04-22T06:26:44.968Z,81.10
2018-04-22T06:29:14.034Z,81.10
2018-04-22T06:31:42.369Z,81.00
2018-04-22T06:34:10.974Z,81.10
2018-04-22T06:36:39.510Z,81.20
2018-04-22T06:39:07.922Z,81.20
2018-04-22T06:41:36.273Z,81.00
2018-04-22T06:44:04.645Z,80.80
2018-04-22T06:46:33.129Z,80.80
2018-04-22T06:49:01.530Z,80.70
2018-04-22T06:51:29.931Z,80.10
2018-04-22T06:53:59.037Z,79.70
2018-04-22T06:56:27.445Z,79.80
2018-04-22T06:58:56.553Z,80.00
2018-04-22T07:01:25.673Z,79.60
2018-04-22T07:03:54.105Z,79.60
2018-04-22T07:06:22.473Z,79.30
2018-04-22T07:08:50.843Z,79.20
2018-04-22T07:11:19.201Z,78.60
2018-04-22T07:13:47.569Z,78.40
2018-04-22T07:16:15.896Z,78.00
2018-04-22T07:18:44.282Z,77.80
2018-04-22T07:21:12.619Z,77.60
2018-04-22T07:23:40.973Z,77.30
2018-04-22T07:26:09.351Z,77.00
2018-04-22T07:28:37.762Z,76.50
2018-04-22T07:31:06.159Z,76.20
2018-04-22T07:33:34.571Z,75.80
2018-04-22T07:36:03.664Z,74.80
2018-04-22T07:38:32.057Z,74.80
2018-04-22T07:41:00.416Z,74.80
2018-04-22T07:43:28.793Z,74.30
2018-04-22T07:45:57.964Z,72.80
2018-04-22T07:48:26.332Z,72.80
2018-04-22T07:50:54.687Z,72.30
2018-04-22T07:53:23.143Z,71.70
2018-04-22T07:55:51.489Z,71.10
2018-04-22T07:58:19.875Z,70.40
2018-04-22T08:00:49.080Z,70.10
2018-04-22T08:03:18.281Z,69.80
2018-04-22T08:05:46.661Z,69.70
2018-04-22T08:08:15.045Z,69.90
2018-04-22T08:10:44.161Z,69.40
2018-04-22T08:13:12.559Z,69.30
2018-04-22T08:15:40.909Z,69.40
2018-04-22T08:18:09.311Z,69.10
2018-04-22T08:20:37.648Z,68.10
2018-04-22T08:23:06.087Z,68.60
2018-04-22T08:25:35.217Z,67.00
2018-04-22T08:28:03.537Z,66.90
2018-04-22T08:30:31.873Z,66.40
2018-04-22T08:33:00.212Z,66.20
2018-04-22T08:35:28.529Z,65.80
2018-04-22T08:37:56.849Z,65.40
2018-04-22T08:40:25.183Z,64.00
2018-04-22T08:42:53.507Z,64.30
2018-04-22T08:45:21.796Z,65.00
2018-04-22T08:47:50.145Z,63.60
2018-04-22T08:50:18.459Z,62.20
2018-04-22T08:52:46.780Z,63.00
2018-04-22T08:55:15.068Z,61.70
2018-04-22T08:57:44.159Z,61.10
2018-04-22T09:00:12.450Z,61.00
2018-04-22T09:02:41.540Z,56.20
2018-04-22T09:05:10.586Z,57.60
2018-04-22T09:07:38.908Z,56.90
2018-04-22T09:10:07.206Z,55.60
2018-04-22T09:12:36.309Z,58.00
2018-04-22T09:15:04.641Z,57.40
2018-04-22T09:17:32.961Z,56.20
2018-04-22T09:20:01.305Z,57.50
2018-04-22T09:22:29.643Z,56.50
2018-04-22T09:24:57.931Z,56.40
2018-04-22T09:27:26.253Z,54.80
2018-04-22T09:29:55.308Z,55.20
2018-04-22T09:32:23.635Z,55.20
2018-04-22T09:34:52.701Z,54.40
2018-04-22T09:37:21.016Z,54.30
2018-04-22T09:39:49.308Z,53.70
2018-04-22T09:42:17.628Z,53.70
2018-04-22T09:44:45.929Z,53.60
2018-04-22T09:47:14.262Z,52.20
2018-04-22T09:49:42.581Z,51.70
2018-04-22T09:52:10.905Z,51.00
2018-04-22T09:54:39.264Z,49.80
2018-04-22T09:57:07.553Z,49.20
2018-04-22T09:59:35.871Z,50.40
2018-04-22T10:02:04.159Z,50.60
2018-04-22T10:04:38.098Z,51.90
2018-04-22T10:07:07.177Z,50.40
2018-04-22T10:09:35.557Z,50.40
2018-04-22T10:12:04.627Z,50.30
2018-04-22T10:14:32.956Z,50.30
2018-04-22T10:17:01.232Z,50.70
2018-04-22T10:19:29.561Z,48.80
2018-04-22T10:21:57.875Z,48.80
2018-04-22T10:24:26.228Z,49.00
2018-04-22T10:26:54.521Z,48.40
2018-04-22T10:29:23.631Z,48.70
2018-04-22T10:31:51.928Z,48.70
2018-04-22T10:34:20.238Z,48.40
2018-04-22T10:36:48.544Z,48.40
2018-04-22T10:39:17.636Z,48.60
2018-04-22T10:41:45.920Z,48.60
2018-04-22T10:44:15.014Z,48.60
2018-04-22T10:46:44.067Z,48.40
2018-04-22T10:49:12.400Z,48.30
2018-04-22T10:51:41.449Z,48.60
2018-04-22T10:54:09.761Z,48.60
2018-04-22T10:56:38.812Z,48.70
2018-04-22T10:59:07.942Z,48.60
2018-04-22T11:01:36.347Z,48.60
2018-04-22T11:04:04.801Z,47.80
2018-04-22T11:06:33.907Z,47.90
2018-04-22T11:09:02.229Z,47.80
2018-04-22T11:11:30.590Z,47.40
2018-04-22T11:13:58.967Z,46.50
2018-04-22T11:16:27.326Z,46.80
2018-04-22T11:18:56.459Z,43.80
2018-04-22T11:21:24.845Z,43.80
2018-04-22T11:23:53.265Z,43.80
2018-04-22T11:26:21.591Z,44.90
2018-04-22T11:28:49.932Z,45.80
2018-04-22T11:31:18.326Z,45.80
2018-04-22T11:33:46.659Z,45.40
2018-04-22T11:36:15.076Z,45.00
2018-04-22T11:38:44.189Z,46.30
2018-04-22T11:41:12.567Z,46.30
2018-04-22T11:43:40.912Z,46.60
2018-04-22T11:46:09.325Z,46.50
2018-04-22T11:48:37.682Z,47.00
2018-04-22T11:51:06.857Z,45.40
2018-04-22T11:53:35.285Z,45.40
2018-04-22T11:56:04.440Z,45.80
2018-04-22T11:58:32.804Z,45.80
2018-04-22T12:01:01.198Z,46.40
2018-04-22T12:03:29.568Z,46.30
2018-04-22T12:05:57.984Z,46.20
2018-04-22T12:08:26.296Z,46.60
2018-04-22T12:10:54.691Z,46.40
2018-04-22T12:13:23.017Z,45.80
2018-04-22T12:15:52.103Z,46.80
2018-04-22T12:18:21.184Z,46.90
2018-04-22T12:20:49.508Z,46.90
2018-04-22T12:23:17.799Z,46.90
2018-04-22T12:25:46.107Z,46.70
2018-04-22T12:28:14.425Z,46.20
2018-04-22T12:30:42.804Z,46.00
2018-04-22T12:33:11.128Z,46.30
2018-04-22T12:35:39.501Z,45.90
2018-04-22T12:38:07.936Z,46.20
2018-04-22T12:40:36.300Z,46.20
2018-04-22T12:43:05.392Z,46.00
2018-04-22T12:45:34.608Z,44.90
2018-04-22T12:48:02.949Z,44.80
2018-04-22T12:50:31.306Z,45.20
2018-04-22T12:52:59.606Z,45.00
2018-04-22T12:55:28.000Z,45.20
2018-04-22T12:57:56.283Z,45.50
2018-04-22T13:00:24.599Z,44.50
2018-04-22T13:02:52.896Z,43.00
2018-04-22T13:05:21.216Z,43.50
2018-04-22T13:07:50.285Z,44.30
2018-04-22T13:10:19.384Z,43.80
2018-04-22T13:12:47.739Z,43.80
2018-04-22T13:15:16.147Z,44.00
2018-04-22T13:17:44.514Z,44.80
2018-04-22T13:20:12.931Z,43.80
2018-04-22T13:22:41.327Z,43.50
2018-04-22T13:25:09.667Z,43.30
2018-04-22T13:27:37.971Z,42.50
2018-04-22T13:30:06.358Z,43.10
2018-04-22T13:32:34.669Z,42.30
2018-04-22T13:35:02.974Z,42.70
2018-04-22T13:37:31.299Z,41.60
2018-04-22T13:39:59.633Z,41.50
2018-04-22T13:42:27.947Z,38.60
2018-04-22T13:44:56.229Z,37.10
2018-04-22T13:47:24.562Z,38.30
2018-04-22T13:49:53.721Z,37.60
2018-04-22T13:52:22.032Z,37.60
2018-04-22T13:54:50.321Z,37.90
2018-04-22T13:57:18.651Z,38.00
2018-04-22T13:59:46.952Z,38.70
2018-04-22T14:02:15.278Z,37.90
2018-04-22T14:04:44.319Z,36.80
2018-04-22T14:07:12.645Z,36.80
2018-04-22T14:09:41.717Z,35.80
2018-04-22T14:12:10.055Z,35.70
2018-04-22T14:14:38.361Z,35.40
2018-04-22T14:17:06.682Z,34.00
2018-04-22T14:19:35.727Z,32.00
2018-04-22T14:22:04.828Z,31.80
2018-04-22T14:24:33.095Z,31.80
2018-04-22T14:27:01.507Z,31.00
2018-04-22T14:29:29.795Z,31.80
2018-04-22T14:31:58.871Z,33.70
2018-04-22T14:34:27.166Z,33.70
2018-04-22T14:36:56.253Z,34.80
2018-04-22T14:39:24.539Z,34.70
2018-04-22T14:41:52.866Z,34.20
2018-04-22T14:47:24.712Z,32.40
2018-04-22T14:49:56.436Z,31.60
2018-04-22T14:52:24.748Z,31.70
2018-04-22T14:54:53.053Z,31.70
2018-04-22T14:57:21.364Z,32.50
2018-04-22T14:59:49.658Z,32.50
2018-04-22T15:02:17.964Z,32.00
2018-04-22T15:04:46.275Z,32.00
2018-04-22T15:07:14.580Z,32.70
2018-04-22T15:09:42.869Z,33.30
2018-04-22T15:12:11.964Z,33.00
2018-04-22T15:14:40.240Z,32.90
2018-04-22T15:17:09.321Z,32.90
2018-04-22T15:19:38.383Z,33.30
2018-04-22T15:22:06.701Z,33.30
2018-04-22T15:24:35.774Z,32.60
2018-04-22T15:27:04.083Z,32.60
2018-04-22T15:29:33.168Z,32.00
2018-04-22T15:32:01.617Z,32.00
2018-04-22T15:34:30.026Z,32.80
2018-04-22T15:36:58.387Z,32.60
2018-04-22T15:39:26.724Z,32.50
2018-04-22T15:41:55.088Z,32.40
2018-04-22T15:44:23.381Z,32.80
2018-04-22T15:46:51.704Z,32.90
2018-04-22T15:49:20.009Z,33.40
2018-04-22T15:51:49.119Z,32.60
2018-04-22T15:54:17.408Z,32.60
2018-04-22T15:56:45.707Z,33.10
2018-04-22T15:59:14.027Z,33.30
2018-04-22T16:01:43.089Z,34.50
2018-04-22T16:04:11.425Z,34.00
2018-04-22T16:06:39.715Z,35.00
2018-04-22T16:09:08.032Z,33.90
2018-04-22T16:11:36.312Z,34.90
2018-04-22T16:14:04.623Z,34.40
2018-04-22T16:16:33.676Z,34.30
2018-04-22T16:19:02.038Z,34.30
2018-04-22T16:21:30.325Z,34.40
2018-04-22T16:23:58.646Z,33.30
2018-04-22T16:26:27.695Z,33.50
2018-04-22T16:28:56.026Z,32.80
2018-04-22T16:31:25.083Z,33.40
2018-04-22T16:33:53.392Z,33.30
2018-04-22T16:36:22.453Z,33.80
2018-04-22T16:38:50.775Z,33.70
2018-04-22T16:41:19.057Z,33.90
2018-04-22T16:43:47.374Z,33.80
2018-04-22T16:46:15.679Z,34.70
2018-04-22T16:48:43.992Z,34.80
2018-04-22T16:51:12.272Z,34.70
2018-04-22T16:53:40.588Z,34.90
2018-04-22T16:56:08.874Z,35.00
2018-04-22T16:58:37.193Z,35.10
2018-04-22T17:01:06.236Z,34.00
2018-04-22T17:03:34.552Z,33.90
2018-04-22T17:06:03.600Z,34.40
2018-04-22T17:08:32.682Z,34.40
2018-04-22T17:11:00.975Z,34.40
2018-04-22T17:13:29.281Z,34.50
2018-04-22T17:15:57.561Z,34.80
2018-04-22T17:18:25.868Z,34.80
2018-04-22T17:20:54.173Z,35.30
2018-04-22T17:23:22.498Z,35.00
2018-04-22T17:25:50.791Z,35.60
2018-04-22T17:28:19.873Z,35.90
2018-04-22T17:30:48.980Z,36.30
2018-04-22T17:33:17.379Z,36.20
2018-04-22T17:35:45.757Z,36.40
2018-04-22T17:38:14.244Z,36.40
2018-04-22T17:40:42.666Z,36.90
2018-04-22T17:43:11.101Z,37.00
2018-04-22T17:45:39.453Z,37.00
2018-04-22T17:48:08.572Z,37.60
2018-04-22T17:50:36.900Z,37.50
2018-04-22T17:53:05.182Z,37.60
2018-04-22T17:55:33.500Z,37.70
2018-04-22T17:58:01.799Z,38.20
2018-04-22T18:00:30.104Z,39.80
2018-04-22T18:02:58.399Z,40.30
2018-04-22T18:05:26.710Z,39.70
2018-04-22T18:07:54.995Z,41.50
2018-04-22T18:10:23.299Z,41.90
2018-04-22T18:12:52.351Z,43.20
2018-04-22T18:15:21.437Z,43.60
2018-04-22T18:17:50.484Z,44.50
2018-04-22T18:20:18.833Z,44.50
2018-04-22T18:22:47.148Z,44.10
2018-04-22T18:25:15.450Z,44.70
2018-04-22T18:27:43.753Z,44.90
2018-04-22T18:30:12.117Z,44.90
2018-04-22T18:32:41.189Z,46.00
2018-04-22T18:35:09.508Z,46.00
2018-04-22T18:37:37.800Z,46.20
2018-04-22T18:40:06.128Z,46.70
2018-04-22T18:42:34.433Z,47.00
2018-04-22T18:45:02.762Z,47.60
2018-04-22T18:47:31.052Z,48.00
2018-04-22T18:49:59.419Z,48.00
2018-04-22T18:52:27.705Z,48.30
2018-04-22T18:54:56.030Z,48.90
2018-04-22T18:57:24.322Z,49.50
2018-04-22T18:59:52.696Z,49.70
2018-04-22T19:02:20.979Z,50.20
2018-04-22T19:04:49.293Z,50.50
2018-04-22T19:07:17.637Z,50.80
2018-04-22T19:09:45.970Z,51.10
2018-04-22T19:12:14.284Z,51.50
2018-04-22T19:14:42.592Z,52.10
2018-04-22T19:17:10.892Z,52.20
2018-04-22T19:19:39.213Z,52.70
2018-04-22T19:22:07.595Z,52.80
2018-04-22T19:24:35.954Z,53.10
2018-04-22T19:27:04.304Z,53.30
2018-04-22T19:29:32.659Z,53.90
2018-04-22T19:32:01.056Z,54.00
2018-04-22T19:34:29.373Z,54.60
2018-04-22T19:36:57.662Z,54.70
2018-04-22T19:39:25.991Z,55.00
2018-04-22T19:41:54.290Z,55.10
2018-04-22T19:44:23.380Z,56.20
2018-04-22T19:46:51.688Z,56.20
2018-04-22T19:49:20.001Z,56.60
2018-04-22T19:51:48.296Z,56.40
2018-04-22T19:54:16.629Z,56.70
2018-04-22T19:56:44.972Z,56.80
2018-04-22T19:59:13.488Z,57.20
2018-04-22T20:01:41.855Z,57.10
2018-04-22T20:04:10.226Z,57.40
2018-04-22T20:06:38.651Z,57.50
2018-04-22T20:09:07.001Z,57.90
2018-04-22T20:11:35.424Z,58.00
2018-04-22T20:14:03.785Z,58.30
2018-04-22T20:16:32.235Z,58.80
2018-04-22T20:19:00.901Z,59.10
2018-04-22T20:21:29.649Z,59.40
2018-04-22T20:23:58.405Z,59.70
2018-04-22T20:26:27.305Z,59.30
2018-04-22T20:28:56.036Z,59.80
2018-04-22T20:31:24.602Z,60.20
2018-04-22T20:33:53.108Z,60.40
2018-04-22T20:36:22.305Z,60.80
2018-04-22T20:38:50.616Z,60.70
2018-04-22T20:41:18.938Z,60.70
2018-04-22T20:43:47.227Z,60.60
2018-04-22T20:46:15.554Z,61.40
2018-04-22T20:48:43.874Z,61.90
2018-04-22T20:51:12.190Z,62.00
2018-04-22T20:53:40.507Z,62.40
2018-04-22T20:56:09.594Z,62.80
2018-04-22T20:58:37.881Z,62.80
2018-04-22T21:01:06.978Z,63.80
2018-04-22T21:03:35.267Z,63.80
2018-04-22T21:06:03.593Z,63.60
2018-04-22T21:08:31.882Z,64.10
2018-04-22T21:11:00.198Z,64.60
2018-04-22T21:13:29.246Z,64.70
2018-04-22T21:15:57.568Z,64.00
2018-04-22T21:18:25.866Z,64.70
2018-04-22T21:20:54.205Z,64.90
2018-04-22T21:23:22.491Z,65.00
2018-04-22T21:25:51.008Z,64.70
2018-04-22T21:28:20.138Z,65.10
2018-04-22T21:30:48.524Z,65.10
2018-04-22T21:33:16.889Z,65.20
2018-04-22T21:35:45.332Z,65.40
2018-04-22T21:38:13.688Z,65.60
2018-04-22T21:40:42.232Z,65.90
2018-04-22T21:43:10.640Z,65.90
2018-04-22T21:45:39.010Z,66.10
2018-04-22T21:48:07.456Z,66.00
2018-04-22T21:50:35.954Z,66.00
2018-04-22T21:53:04.379Z,66.10
2018-04-22T21:55:33.534Z,66.60
2018-04-22T21:58:01.960Z,66.50
2018-04-22T22:00:30.308Z,66.90
2018-04-22T22:02:58.723Z,67.30
2018-04-22T22:05:27.068Z,67.40
2018-04-22T22:07:55.459Z,67.40
2018-04-22T22:10:23.786Z,67.00
2018-04-22T22:12:52.951Z,67.30
2018-04-22T22:15:21.285Z,67.20
2018-04-22T22:17:49.636Z,67.30
2018-04-22T22:20:17.979Z,67.50
2018-04-22T22:22:46.316Z,67.50
2018-04-22T22:25:14.605Z,67.80
2018-04-22T22:27:42.921Z,67.90
2018-04-22T22:30:11.210Z,68.20
2018-04-22T22:32:39.536Z,68.60
2018-04-22T22:35:07.837Z,69.00
2018-04-22T22:37:36.925Z,69.10
2018-04-22T22:40:05.234Z,69.00
2018-04-22T22:42:33.575Z,69.00
2018-04-22T22:45:01.867Z,68.90
2018-04-22T22:47:30.947Z,69.00
2018-04-22T22:49:59.244Z,69.00
2018-04-22T22:52:27.569Z,69.20
2018-04-22T22:54:56.632Z,70.40
2018-04-22T22:57:24.955Z,70.40
2018-04-22T22:59:53.256Z,71.30
2018-04-22T23:02:21.581Z,71.20
2018-04-22T23:04:49.869Z,70.70
2018-04-22T23:07:18.978Z,70.50
2018-04-22T23:09:47.278Z,70.50
2018-04-22T23:12:15.585Z,70.40
2018-04-22T23:14:43.873Z,70.50
2018-04-22T23:17:12.186Z,70.60
2018-04-22T23:19:40.511Z,70.40
2018-04-22T23:22:09.252Z,71.20
2018-04-22T23:24:38.808Z,70.30
2018-04-22T23:27:07.536Z,70.30
2018-04-22T23:29:36.213Z,70.10
2018-04-22T23:32:05.057Z,70.10
2018-04-22T23:34:33.750Z,69.90
2018-04-22T23:37:03.282Z,70.10
2018-04-22T23:39:32.056Z,70.10
2018-04-22T23:42:00.860Z,70.30
2018-04-22T23:44:30.381Z,70.20
2018-04-22T23:46:59.091Z,70.20
2018-04-22T23:49:28.247Z,70.40
2018-04-22T23:51:57.064Z,70.50
2018-04-22T23:54:25.831Z,70.90
2018-04-22T23:56:55.413Z,71.20
2018-04-22T23:59:24.197Z,71.10
